createdAt,value
2022-12-11T00:03:41.862Z,44.65
2022-12-11T00:08:46.136Z,44.68
2022-12-11T00:13:49.121Z,44.73
2022-12-11T00:18:51.947Z,44.69
2022-12-11T00:23:56.210Z,44.66
2022-12-11T00:28:59.102Z,44.70
2022-12-11T00:34:02.251Z,44.73
2022-12-11T00:39:06.551Z,44.46
2022-12-11T00:44:09.357Z,44.91
2022-12-11T00:49:12.112Z,44.77
2022-12-11T00:54:16.297Z,44.58
2022-12-11T00:59:19.072Z,44.93
2022-12-11T01:04:21.863Z,44.96
2022-12-11T01:09:43.572Z,44.84
2022-12-11T01:14:46.348Z,45.33
2022-12-11T01:19:49.121Z,45.71
2022-12-11T01:24:53.348Z,45.39
2022-12-11T01:29:56.163Z,45.56
2022-12-11T01:34:58.917Z,45.76
2022-12-11T01:40:03.388Z,45.91
2022-12-11T01:45:26.847Z,45.97
2022-12-11T01:50:30.225Z,46.19
2022-12-11T01:55:34.779Z,46.34
2022-12-11T02:00:37.537Z,46.49
2022-12-11T02:05:40.318Z,46.41
2022-12-11T02:10:55.334Z,46.66
2022-12-11T02:16:00.645Z,46.49
2022-12-11T02:21:06.777Z,46.98
2022-12-11T02:26:21.564Z,46.89
2022-12-11T02:31:28.988Z,47.12
2022-12-11T02:36:33.428Z,47.12
2022-12-11T02:41:36.568Z,47.33
2022-12-11T02:46:40.810Z,47.41
2022-12-11T02:51:44.238Z,47.45
2022-12-11T02:56:48.050Z,47.68
2022-12-11T03:01:52.213Z,47.64
2022-12-11T03:06:56.327Z,47.68
2022-12-11T03:11:59.097Z,47.94
2022-12-11T03:17:06.434Z,48.03
2022-12-11T03:22:11.266Z,48.42
2022-12-11T03:27:16.734Z,48.38
2022-12-11T03:32:23.100Z,48.58
2022-12-11T03:37:39.303Z,48.61
2022-12-11T03:42:50.687Z,48.87
2022-12-11T03:47:55.024Z,49.07
2022-12-11T03:52:57.862Z,48.99
2022-12-11T03:58:00.683Z,48.93
2022-12-11T04:03:17.881Z,49.35
2022-12-11T04:08:21.657Z,49.17
2022-12-11T04:13:24.565Z,49.54
2022-12-11T04:18:46.261Z,49.65
2022-12-11T04:24:06.433Z,49.58
2022-12-11T04:29:09.205Z,49.84
2022-12-11T04:34:13.488Z,50.04
2022-12-11T04:39:16.251Z,49.79
2022-12-11T04:44:19.127Z,50.03
2022-12-11T04:49:23.217Z,50.15
2022-12-11T04:54:26.001Z,50.12
2022-12-11T04:59:28.810Z,50.66
2022-12-11T05:04:33.273Z,50.62
2022-12-11T05:09:36.050Z,50.66
2022-12-11T05:14:38.908Z,50.83
2022-12-11T05:19:43.086Z,51.08
2022-12-11T05:24:46.098Z,50.87
2022-12-11T05:29:48.919Z,50.85
2022-12-11T05:34:53.028Z,51.18
2022-12-11T05:39:55.756Z,51.23
2022-12-11T05:44:58.576Z,51.10
2022-12-11T05:50:02.706Z,51.32
2022-12-11T05:55:06.335Z,51.40
2022-12-11T06:00:10.611Z,51.17
2022-12-11T06:05:14.793Z,51.40
2022-12-11T06:10:17.744Z,51.48
2022-12-11T06:15:20.592Z,51.54
2022-12-11T06:20:24.747Z,51.52
2022-12-11T06:25:27.581Z,51.39
2022-12-11T06:30:38.516Z,51.47
2022-12-11T06:35:43.659Z,51.68
2022-12-11T06:40:46.567Z,51.40
2022-12-11T06:45:49.420Z,51.61
2022-12-11T06:50:53.592Z,51.58
2022-12-11T06:55:56.342Z,51.94
2022-12-11T07:00:59.162Z,51.79
2022-12-11T07:06:03.615Z,51.94
2022-12-11T07:11:06.621Z,51.74
2022-12-11T07:16:11.155Z,51.94
2022-12-11T07:21:15.564Z,51.92
2022-12-11T07:26:19.270Z,51.97
2022-12-11T07:31:25.218Z,52.13
2022-12-11T07:36:29.857Z,52.04
2022-12-11T07:41:32.737Z,52.39
2022-12-11T07:46:35.765Z,52.02
2022-12-11T07:51:39.946Z,52.26
2022-12-11T07:56:44.002Z,51.98
2022-12-11T08:01:46.912Z,52.18
2022-12-11T08:06:51.004Z,52.03
2022-12-11T08:11:53.881Z,51.38
2022-12-11T08:16:57.991Z,51.15
2022-12-11T08:22:02.213Z,50.20
2022-12-11T08:27:05.478Z,48.22
2022-12-11T08:32:12.230Z,47.93
2022-12-11T08:37:16.913Z,47.60
2022-12-11T08:42:19.840Z,46.98
2022-12-11T08:47:23.028Z,47.01
2022-12-11T08:52:27.369Z,47.68
2022-12-11T08:57:30.453Z,47.81
2022-12-11T09:02:33.365Z,47.48
2022-12-11T09:07:37.744Z,47.72
2022-12-11T09:12:40.540Z,48.00
2022-12-11T09:17:43.310Z,48.25
2022-12-11T09:22:47.495Z,48.61
2022-12-11T09:27:50.550Z,49.07
2022-12-11T09:32:53.538Z,49.33
2022-12-11T09:37:57.658Z,49.29
2022-12-11T09:43:01.632Z,49.27
2022-12-11T09:48:04.788Z,49.17
2022-12-11T09:53:13.626Z,48.88
2022-12-11T09:58:21.881Z,49.02
2022-12-11T10:04:00.461Z,48.69
2022-12-11T10:09:10.127Z,48.38
2022-12-11T10:14:15.327Z,48.41
2022-12-11T10:19:19.529Z,47.88
2022-12-11T10:25:09.397Z,48.13
2022-12-11T10:30:02.473Z,48.03
2022-12-11T10:35:06.587Z,48.19
2022-12-11T10:40:11.687Z,47.87
2022-12-11T10:45:17.041Z,47.77
2022-12-11T10:50:23.715Z,48.08
2022-12-11T10:55:29.569Z,47.87
2022-12-11T11:00:35.481Z,48.02
2022-12-11T11:05:38.836Z,47.99
2022-12-11T11:10:52.964Z,48.03
2022-12-11T11:16:00.436Z,47.92
2022-12-11T11:21:03.311Z,48.21
2022-12-11T11:26:09.004Z,48.23
2022-12-11T11:31:12.879Z,48.14
2022-12-11T11:36:21.265Z,48.40
2022-12-11T11:41:28.823Z,48.30
2022-12-11T11:46:35.084Z,48.52
2022-12-11T11:51:40.090Z,48.68
2022-12-11T11:56:44.198Z,49.81
2022-12-11T12:01:47.506Z,50.19
2022-12-11T12:07:10.047Z,50.84
2022-12-11T12:12:25.507Z,51.11
2022-12-11T12:17:36.135Z,51.21
2022-12-11T12:22:55.183Z,51.25
2022-12-11T12:28:03.318Z,51.18
2022-12-11T12:33:16.007Z,51.32
2022-12-11T12:38:22.591Z,51.21
2022-12-11T12:43:38.360Z,50.92
2022-12-11T12:48:41.289Z,50.90
2022-12-11T12:53:45.535Z,50.77
2022-12-11T12:58:49.699Z,50.65
2022-12-11T13:03:55.762Z,50.41
2022-12-11T13:08:58.643Z,50.34
2022-12-11T13:14:07.523Z,50.13
2022-12-11T13:19:18.504Z,50.09
2022-12-11T13:24:26.641Z,50.18
2022-12-11T13:29:32.036Z,50.08
2022-12-11T13:34:36.213Z,49.75
2022-12-11T13:39:39.192Z,50.11
2022-12-11T13:44:43.385Z,49.88
2022-12-11T13:49:49.259Z,49.86
2022-12-11T13:54:54.065Z,49.91
2022-12-11T13:59:59.435Z,49.85
2022-12-11T14:05:03.630Z,50.10
2022-12-11T14:10:08.065Z,50.22
2022-12-11T14:15:14.700Z,50.22
2022-12-11T14:20:19.627Z,48.35
2022-12-11T14:25:23.889Z,43.99
2022-12-11T14:30:29.023Z,38.38
2022-12-11T14:35:38.644Z,43.70
2022-12-11T14:40:43.519Z,42.99
2022-12-11T14:45:48.432Z,43.10
2022-12-11T14:50:52.744Z,43.67
2022-12-11T14:56:04.237Z,43.64
2022-12-11T15:01:21.215Z,43.89
2022-12-11T15:06:26.482Z,43.65
2022-12-11T15:11:31.723Z,43.63
2022-12-11T15:16:38.575Z,43.82
2022-12-11T15:21:41.479Z,43.84
2022-12-11T15:26:46.293Z,43.88
2022-12-11T15:31:59.988Z,44.20
2022-12-11T15:37:02.930Z,44.28
2022-12-11T15:42:05.929Z,44.23
2022-12-11T15:47:14.657Z,44.50
2022-12-11T15:52:17.716Z,44.45
2022-12-11T15:57:21.169Z,44.78
2022-12-11T16:02:26.739Z,44.60
2022-12-11T16:07:32.603Z,44.67
2022-12-11T16:12:35.489Z,44.68
2022-12-11T16:17:40.144Z,44.72
2022-12-11T16:22:42.955Z,44.78
2022-12-11T16:27:45.688Z,44.86
2022-12-11T16:32:49.808Z,44.65
2022-12-11T16:37:53.019Z,44.56
2022-12-11T16:42:55.998Z,44.67
2022-12-11T16:48:00.155Z,44.69
2022-12-11T16:53:03.105Z,44.74
2022-12-11T16:58:05.934Z,44.52
2022-12-11T17:03:10.381Z,44.35
2022-12-11T17:08:13.375Z,44.67
2022-12-11T17:13:16.650Z,44.65
2022-12-11T17:18:20.758Z,44.61
2022-12-11T17:23:26.035Z,44.70
2022-12-11T17:28:28.824Z,44.97
2022-12-11T17:33:32.909Z,45.02
2022-12-11T17:38:35.756Z,44.63
2022-12-11T17:43:38.495Z,44.97
2022-12-11T17:48:43.036Z,44.62
2022-12-11T17:53:45.878Z,44.75
2022-12-11T17:58:48.852Z,44.73
2022-12-11T18:03:53.103Z,44.37
2022-12-11T18:08:56.126Z,44.19
2022-12-11T18:13:58.903Z,44.02
2022-12-11T18:19:03.170Z,43.60
2022-12-11T18:24:06.950Z,43.85
2022-12-11T18:29:09.822Z,43.62
2022-12-11T18:34:14.335Z,43.24
2022-12-11T18:39:17.197Z,43.06
2022-12-11T18:44:22.568Z,43.32
2022-12-11T18:49:26.814Z,43.21
2022-12-11T18:54:29.614Z,42.71
2022-12-11T18:59:32.558Z,42.48
2022-12-11T19:04:37.590Z,42.36
2022-12-11T19:09:44.832Z,42.59
2022-12-11T19:14:50.538Z,42.25
2022-12-11T19:19:54.805Z,41.99
2022-12-11T19:24:57.641Z,42.16
2022-12-11T19:30:00.769Z,42.16
2022-12-11T19:35:05.257Z,41.96
2022-12-11T19:40:09.559Z,42.10
2022-12-11T19:45:12.577Z,41.72
2022-12-11T19:50:16.827Z,41.81
2022-12-11T19:55:21.566Z,41.71
2022-12-11T20:00:24.676Z,41.64
2022-12-11T20:05:28.863Z,41.62
2022-12-11T20:10:31.587Z,41.34
2022-12-11T20:15:34.352Z,41.40
2022-12-11T20:20:38.788Z,41.27
2022-12-11T20:25:41.579Z,41.15
2022-12-11T20:30:44.730Z,41.12
2022-12-11T20:35:48.934Z,41.21
2022-12-11T20:40:51.837Z,41.13
2022-12-11T20:45:54.726Z,41.02
2022-12-11T20:51:03.729Z,40.74
2022-12-11T20:56:09.891Z,40.89
2022-12-11T21:01:15.061Z,40.82
2022-12-11T21:06:25.302Z,40.62
2022-12-11T21:11:28.151Z,40.77
2022-12-11T21:16:30.993Z,41.04
2022-12-11T21:21:36.750Z,41.02
2022-12-11T21:26:39.542Z,40.97
2022-12-11T21:31:42.476Z,40.90
2022-12-11T21:36:47.530Z,40.88
2022-12-11T21:41:50.578Z,41.13
2022-12-11T21:46:53.434Z,41.51
2022-12-11T21:51:57.664Z,41.19
2022-12-11T21:57:00.455Z,41.53
2022-12-11T22:02:03.294Z,41.67
2022-12-11T22:07:07.544Z,41.72
2022-12-11T22:12:11.172Z,41.86
2022-12-11T22:17:13.952Z,41.82
2022-12-11T22:22:19.008Z,41.71
2022-12-11T22:27:23.889Z,41.95
2022-12-11T22:32:27.513Z,42.07
2022-12-11T22:37:31.879Z,42.30
2022-12-11T22:42:34.855Z,42.13
2022-12-11T22:47:38.113Z,42.23
2022-12-11T22:52:42.383Z,42.36
2022-12-11T22:57:45.171Z,42.43
2022-12-11T23:02:48.487Z,42.42
2022-12-11T23:07:52.904Z,42.55
2022-12-11T23:12:55.758Z,43.15
2022-12-11T23:17:58.548Z,42.81
2022-12-11T23:23:02.715Z,42.94
2022-12-11T23:28:05.618Z,43.31
2022-12-11T23:33:08.754Z,43.48
2022-12-11T23:38:13.228Z,43.29
2022-12-11T23:43:16.077Z,43.30
2022-12-11T23:48:18.911Z,43.51
2022-12-11T23:53:23.026Z,43.77
2022-12-11T23:58:25.829Z,43.82
